createdAt,value
2023-01-20T00:00:27.265Z,22.73
2023-01-20T00:04:28.989Z,21.95
2023-01-20T00:08:30.678Z,23.98
2023-01-20T00:12:32.415Z,25.50
2023-01-20T00:16:34.177Z,22.50
2023-01-20T00:20:36.115Z,22.77
2023-01-20T00:24:37.817Z,23.65
2023-01-20T00:28:39.872Z,21.60
2023-01-20T00:32:45.289Z,24.45
2023-01-20T00:36:47.089Z,21.67
2023-01-20T00:40:54.935Z,21.95
2023-01-20T00:44:56.656Z,23.52
2023-01-20T00:48:58.504Z,26.67
2023-01-20T00:53:00.267Z,23.02
2023-01-20T00:57:01.993Z,23.92
2023-01-20T01:01:04.013Z,25.20
2023-01-20T01:05:06.280Z,27.27
2023-01-20T01:09:08.061Z,29.70
2023-01-20T01:13:10.067Z,25.15
2023-01-20T01:17:11.725Z,28.05
2023-01-20T01:21:16.166Z,30.52
2023-01-20T01:25:18.204Z,29.33
2023-01-20T01:29:20.224Z,27.98
2023-01-20T01:33:22.277Z,29.87
2023-01-20T01:37:24.066Z,28.08
2023-01-20T01:41:25.928Z,34.30
2023-01-20T01:45:30.056Z,29.95
2023-01-20T01:49:32.982Z,30.40
2023-01-20T01:53:41.668Z,33.83
2023-01-20T01:57:43.801Z,34.05
2023-01-20T02:01:50.286Z,33.88
2023-01-20T02:05:54.169Z,31.60
2023-01-20T02:09:56.921Z,36.53
2023-01-20T02:13:59.685Z,33.15
2023-01-20T02:18:07.221Z,33.33
2023-01-20T02:22:26.191Z,34.13
2023-01-20T02:26:46.281Z,32.20
2023-01-20T02:31:15.411Z,35.08
2023-01-20T02:35:25.693Z,35.20
2023-01-20T02:39:46.239Z,35.83
2023-01-20T02:44:07.066Z,37.10
2023-01-20T02:48:24.200Z,34.95
2023-01-20T02:52:30.140Z,30.10
2023-01-20T02:56:33.008Z,34.58
2023-01-20T03:00:48.288Z,38.05
2023-01-20T03:05:01.292Z,34.53
2023-01-20T03:09:07.268Z,35.13
2023-01-20T03:13:35.403Z,33.63
2023-01-20T03:17:37.468Z,32.58
2023-01-20T03:21:39.234Z,32.53
2023-01-20T03:25:41.488Z,31.85
2023-01-20T03:29:43.278Z,29.25
2023-01-20T03:33:48.617Z,32.58
2023-01-20T03:37:50.415Z,35.08
2023-01-20T03:42:10.440Z,31.10
2023-01-20T03:46:24.005Z,28.33
2023-01-20T03:50:32.115Z,26.77
2023-01-20T03:54:55.979Z,30.30
2023-01-20T03:59:01.337Z,28.58
2023-01-20T04:03:07.430Z,27.58
2023-01-20T04:07:14.089Z,30.07
2023-01-20T04:11:15.975Z,28.92
2023-01-20T04:15:20.128Z,29.52
2023-01-20T04:19:22.514Z,35.20
2023-01-20T04:23:39.922Z,34.88
2023-01-20T04:27:41.690Z,32.30
2023-01-20T04:31:43.422Z,32.38
2023-01-20T04:35:45.223Z,34.20
2023-01-20T04:39:46.958Z,33.95
2023-01-20T04:43:48.726Z,33.03
2023-01-20T04:47:50.700Z,34.25
2023-01-20T04:51:52.717Z,27.50
2023-01-20T04:55:54.426Z,29.55
2023-01-20T04:59:56.165Z,32.00
2023-01-20T05:03:57.889Z,32.03
2023-01-20T05:07:59.807Z,31.80
2023-01-20T05:12:01.569Z,30.42
2023-01-20T05:16:03.512Z,34.38
2023-01-20T05:20:05.602Z,28.02
2023-01-20T05:24:07.388Z,34.50
2023-01-20T05:28:09.182Z,30.88
2023-01-20T05:32:11.138Z,30.17
2023-01-20T05:36:12.928Z,28.65
2023-01-20T05:40:14.715Z,25.73
2023-01-20T05:44:16.591Z,30.45
2023-01-20T05:48:18.347Z,30.30
2023-01-20T05:52:20.151Z,30.92
2023-01-20T05:56:21.938Z,33.05
2023-01-20T06:00:23.892Z,25.58
2023-01-20T06:04:25.657Z,30.37
2023-01-20T06:08:27.399Z,31.50
2023-01-20T06:12:29.139Z,26.48
2023-01-20T06:16:30.868Z,26.50
2023-01-20T06:20:32.916Z,28.23
2023-01-20T06:24:34.611Z,31.85
2023-01-20T06:28:36.386Z,28.05
2023-01-20T06:32:38.053Z,27.70
2023-01-20T06:36:40.269Z,26.77
2023-01-20T06:40:41.924Z,23.85
2023-01-20T06:44:43.601Z,26.90
2023-01-20T06:48:46.414Z,25.00
2023-01-20T06:52:48.419Z,22.98
2023-01-20T06:56:50.032Z,22.10
2023-01-20T07:00:53.029Z,26.67
2023-01-20T07:04:54.792Z,26.12
2023-01-20T07:08:58.877Z,28.23
2023-01-20T07:13:00.705Z,27.27
2023-01-20T07:17:02.532Z,30.17
2023-01-20T07:21:04.884Z,25.80
2023-01-20T07:25:06.803Z,23.92
2023-01-20T07:29:08.534Z,27.08
2023-01-20T07:33:10.199Z,26.90
2023-01-20T07:37:11.838Z,27.58
2023-01-20T07:41:16.349Z,26.17
2023-01-20T07:45:18.190Z,24.20
2023-01-20T07:49:19.980Z,23.75
2023-01-20T07:53:21.669Z,23.48
2023-01-20T07:57:23.320Z,26.87
2023-01-20T08:01:28.317Z,28.38
2023-01-20T08:05:32.473Z,25.60
2023-01-20T08:09:34.097Z,22.37
2023-01-20T08:13:35.837Z,26.55
2023-01-20T08:17:37.500Z,27.40
2023-01-20T08:21:39.188Z,34.03
2023-01-20T08:25:40.845Z,25.83
2023-01-20T08:29:42.656Z,30.65
2023-01-20T08:33:45.391Z,27.98
2023-01-20T08:37:47.070Z,26.02
2023-01-20T08:41:49.980Z,33.75
2023-01-20T08:46:02.035Z,31.35
2023-01-20T08:50:06.137Z,27.48
2023-01-20T08:54:07.873Z,29.73
2023-01-20T08:58:09.555Z,24.75
2023-01-20T09:02:11.297Z,26.02
2023-01-20T09:06:13.599Z,29.55
2023-01-20T09:10:15.303Z,23.75
2023-01-20T09:14:21.507Z,28.60
2023-01-20T09:18:23.196Z,29.57
2023-01-20T09:22:24.840Z,25.48
2023-01-20T09:26:35.985Z,30.05
2023-01-20T09:30:37.860Z,31.50
2023-01-20T09:34:39.557Z,26.60
2023-01-20T09:38:59.716Z,25.83
2023-01-20T09:43:54.460Z,26.58
2023-01-20T09:48:51.066Z,25.60
2023-01-20T09:53:25.587Z,21.08
2023-01-20T09:57:31.654Z,22.52
2023-01-20T10:01:42.010Z,22.53
2023-01-20T10:05:45.180Z,24.15
2023-01-20T10:09:54.194Z,24.02
2023-01-20T10:14:12.769Z,28.40
2023-01-20T10:18:40.697Z,25.35
2023-01-20T10:22:48.055Z,29.30
2023-01-20T10:26:59.093Z,27.00
2023-01-20T10:31:04.175Z,26.65
2023-01-20T10:35:22.909Z,29.90
2023-01-20T10:39:34.797Z,22.67
2023-01-20T10:43:36.563Z,21.73
2023-01-20T10:48:05.605Z,22.30
2023-01-20T10:52:15.901Z,20.20
2023-01-20T10:56:17.488Z,21.37
2023-01-20T11:00:25.539Z,16.35
2023-01-20T11:04:28.095Z,15.35
2023-01-20T11:08:30.411Z,13.40
2023-01-20T11:12:39.736Z,18.50
2023-01-20T11:16:46.487Z,12.55
2023-01-20T11:20:52.466Z,13.68
2023-01-20T11:24:55.859Z,12.70
2023-01-20T11:29:28.450Z,14.80
2023-01-20T11:33:30.186Z,12.52
2023-01-20T11:37:39.194Z,14.93
2023-01-20T11:41:40.853Z,9.95
2023-01-20T11:45:42.629Z,13.95
2023-01-20T11:49:44.479Z,12.80
2023-01-20T11:53:46.877Z,18.17
2023-01-20T11:58:01.110Z,15.70
2023-01-20T12:02:08.953Z,12.90
2023-01-20T12:06:23.030Z,15.25
2023-01-20T12:10:30.120Z,14.55
2023-01-20T12:19:01.554Z,12.70
2023-01-20T12:23:07.063Z,14.48
2023-01-20T12:27:20.471Z,10.93
2023-01-20T12:31:23.947Z,12.20
2023-01-20T12:35:30.665Z,10.93
2023-01-20T12:39:52.393Z,12.95
2023-01-20T12:44:19.399Z,12.63
2023-01-20T12:48:33.486Z,10.45
2023-01-20T12:53:14.338Z,13.73
2023-01-20T12:57:28.650Z,13.80
2023-01-20T13:01:33.356Z,13.90
2023-01-20T13:06:03.125Z,12.60
2023-01-20T13:10:17.211Z,13.35
2023-01-20T13:14:41.186Z,11.95
2023-01-20T13:19:15.212Z,12.30
2023-01-20T13:23:33.225Z,13.35
2023-01-20T13:27:37.269Z,12.73
2023-01-20T13:31:45.431Z,11.98
2023-01-20T13:35:50.010Z,14.02
2023-01-20T13:39:54.209Z,11.07
2023-01-20T13:43:55.925Z,12.82
2023-01-20T13:48:02.510Z,12.82
2023-01-20T13:52:04.257Z,15.82
2023-01-20T13:56:27.600Z,12.10
2023-01-20T14:00:29.263Z,15.00
2023-01-20T14:04:32.817Z,14.25
2023-01-20T14:08:40.287Z,13.70
2023-01-20T14:12:42.144Z,13.98
2023-01-20T14:16:44.262Z,10.68
2023-01-20T14:21:00.574Z,13.93
2023-01-20T14:25:04.275Z,13.05
2023-01-20T14:29:05.877Z,11.30
2023-01-20T14:33:10.776Z,11.32
2023-01-20T14:37:21.295Z,13.93
2023-01-20T14:41:25.122Z,12.13
2023-01-20T14:45:29.594Z,12.68
2023-01-20T14:49:34.354Z,13.27
2023-01-20T14:53:36.210Z,14.25
2023-01-20T14:57:45.136Z,16.15
2023-01-20T15:02:02.374Z,13.95
2023-01-20T15:06:10.111Z,15.07
2023-01-20T15:10:15.157Z,14.57
2023-01-20T15:14:17.043Z,16.20
2023-01-20T15:18:21.442Z,13.40
2023-01-20T15:22:26.442Z,12.20
2023-01-20T15:26:30.080Z,12.02
2023-01-20T15:30:31.769Z,14.55
2023-01-20T15:34:33.388Z,11.27
2023-01-20T15:38:34.995Z,12.88
2023-01-20T15:42:36.646Z,14.60
2023-01-20T15:46:40.078Z,12.77
2023-01-20T15:50:44.896Z,12.80
2023-01-20T15:54:46.554Z,17.23
2023-01-20T15:58:48.719Z,13.62
2023-01-20T16:02:50.913Z,12.02
2023-01-20T16:06:52.788Z,12.55
2023-01-20T16:10:54.481Z,11.43
2023-01-20T16:14:57.020Z,15.65
2023-01-20T16:18:59.139Z,14.18
2023-01-20T16:23:00.786Z,12.45
2023-01-20T16:27:04.641Z,13.82
2023-01-20T16:31:06.360Z,13.25
2023-01-20T16:35:08.391Z,16.85
2023-01-20T16:39:11.046Z,12.45
2023-01-20T16:43:12.860Z,16.20
2023-01-20T16:47:14.494Z,15.15
2023-01-20T16:51:18.619Z,14.65
2023-01-20T16:55:20.451Z,14.73
2023-01-20T16:59:22.078Z,16.23
2023-01-20T17:03:27.332Z,15.95
2023-01-20T17:07:29.031Z,20.08
2023-01-20T17:11:35.837Z,14.85
2023-01-20T17:15:40.336Z,17.02
2023-01-20T17:19:42.089Z,16.85
2023-01-20T17:23:43.769Z,17.12
2023-01-20T17:27:45.913Z,17.83
2023-01-20T17:31:47.605Z,17.77
2023-01-20T17:35:56.503Z,19.80
2023-01-20T17:39:59.644Z,20.12
2023-01-20T17:44:01.680Z,22.75
2023-01-20T17:48:04.662Z,23.10
2023-01-20T17:52:06.425Z,20.75
2023-01-20T17:56:12.788Z,19.58
2023-01-20T18:00:15.690Z,18.87
2023-01-20T18:04:18.233Z,21.37
2023-01-20T18:08:19.925Z,32.05
2023-01-20T18:12:21.633Z,24.55
2023-01-20T18:16:27.220Z,22.75
2023-01-20T18:20:28.934Z,22.90
2023-01-20T18:24:30.603Z,22.77
2023-01-20T18:28:33.204Z,19.87
2023-01-20T18:32:34.930Z,25.08
2023-01-20T18:36:40.076Z,17.60
2023-01-20T18:40:41.674Z,22.33
2023-01-20T18:44:43.810Z,20.88
2023-01-20T18:48:47.182Z,26.85
2023-01-20T18:52:48.868Z,19.23
2023-01-20T18:56:50.529Z,27.75
2023-01-20T19:00:52.203Z,19.75
2023-01-20T19:04:53.859Z,17.83
2023-01-20T19:08:57.311Z,18.83
2023-01-20T19:12:59.005Z,19.30
2023-01-20T19:17:00.671Z,21.92
2023-01-20T19:21:07.699Z,21.67
2023-01-20T19:25:09.926Z,20.48
2023-01-20T19:29:15.523Z,19.62
2023-01-20T19:33:17.460Z,21.20
2023-01-20T19:37:19.139Z,23.75
2023-01-20T19:41:25.715Z,24.17
2023-01-20T19:45:40.378Z,24.23
2023-01-20T19:49:46.707Z,22.20
2023-01-20T19:53:50.084Z,24.50
2023-01-20T19:57:51.797Z,20.42
2023-01-20T20:01:53.533Z,23.38
2023-01-20T20:05:57.178Z,26.08
2023-01-20T20:09:59.021Z,22.17
2023-01-20T20:14:02.709Z,21.75
2023-01-20T20:18:04.389Z,22.02
2023-01-20T20:22:06.042Z,17.55
2023-01-20T20:26:11.957Z,22.42
2023-01-20T20:30:13.939Z,22.33
2023-01-20T20:34:17.819Z,21.05
2023-01-20T20:38:19.591Z,18.80
2023-01-20T20:42:21.279Z,20.42
2023-01-20T20:46:23.503Z,21.20
2023-01-20T20:50:25.325Z,16.73
2023-01-20T20:54:27.059Z,18.75
2023-01-20T20:58:29.914Z,19.27
2023-01-20T21:02:31.979Z,21.02
2023-01-20T21:06:34.169Z,18.08
2023-01-20T21:10:35.837Z,21.80
2023-01-20T21:14:37.576Z,20.40
2023-01-20T21:18:40.631Z,20.50
2023-01-20T21:22:42.321Z,19.67
2023-01-20T21:26:44.716Z,21.83
2023-01-20T21:30:46.588Z,22.95
2023-01-20T21:34:48.339Z,26.20
2023-01-20T21:38:50.679Z,19.15
2023-01-20T21:42:54.390Z,28.77
2023-01-20T21:46:59.701Z,21.67
2023-01-20T21:51:19.922Z,25.65
2023-01-20T21:55:23.997Z,25.12
2023-01-20T21:59:27.518Z,24.58
2023-01-20T22:03:29.270Z,21.40
2023-01-20T22:07:30.992Z,20.10
2023-01-20T22:11:32.678Z,20.92
2023-01-20T22:15:34.784Z,22.02
2023-01-20T22:19:36.619Z,21.62
2023-01-20T22:23:38.229Z,25.27
2023-01-20T22:27:39.881Z,28.12
2023-01-20T22:31:41.771Z,28.30
2023-01-20T22:35:43.891Z,27.02
2023-01-20T22:39:45.615Z,35.42
2023-01-20T22:43:48.044Z,29.95
2023-01-20T22:47:50.057Z,28.40
2023-01-20T22:51:54.243Z,34.20
2023-01-20T22:56:02.273Z,39.17
2023-01-20T23:00:06.005Z,33.85
2023-01-20T23:04:07.772Z,38.88
2023-01-20T23:08:09.415Z,36.60
2023-01-20T23:12:11.113Z,36.90
2023-01-20T23:16:15.116Z,31.50
2023-01-20T23:20:17.225Z,36.92
2023-01-20T23:24:19.040Z,37.75
2023-01-20T23:28:20.687Z,35.78
2023-01-20T23:32:22.317Z,32.05
2023-01-20T23:36:25.583Z,37.55
2023-01-20T23:40:27.413Z,37.85
2023-01-20T23:44:29.039Z,37.15
2023-01-20T23:48:31.359Z,43.38
2023-01-20T23:52:32.990Z,36.83
2023-01-20T23:56:35.118Z,35.85
